createdAt,value
2022-12-18T00:01:34.806Z,63.36
2022-12-18T00:04:04.823Z,63.44
2022-12-18T00:06:31.809Z,63.87
2022-12-18T00:08:59.974Z,63.17
2022-12-18T00:11:30.409Z,63.21
2022-12-18T00:13:59.448Z,62.83
2022-12-18T00:16:29.653Z,63.83
2022-12-18T00:19:00.772Z,63.17
2022-12-18T00:21:30.502Z,63.21
2022-12-18T00:23:57.922Z,63.01
2022-12-18T00:26:27.597Z,63.04
2022-12-18T00:28:56.495Z,63.41
2022-12-18T00:31:25.704Z,62.82
2022-12-18T00:33:56.599Z,62.60
2022-12-18T00:36:27.587Z,63.17
2022-12-18T00:38:56.776Z,63.05
2022-12-18T00:41:42.560Z,62.11
2022-12-18T00:44:13.145Z,62.49
2022-12-18T00:46:40.110Z,61.88
2022-12-18T00:49:07.804Z,62.84
2022-12-18T00:51:34.420Z,62.56
2022-12-18T00:54:01.345Z,62.68
2022-12-18T00:56:28.056Z,62.46
2022-12-18T00:58:55.011Z,62.38
2022-12-18T01:01:21.645Z,62.68
2022-12-18T01:03:48.571Z,62.81
2022-12-18T01:06:17.052Z,62.26
2022-12-18T01:08:44.577Z,62.47
2022-12-18T01:11:14.762Z,61.91
2022-12-18T01:13:41.912Z,61.94
2022-12-18T01:16:09.895Z,62.05
2022-12-18T01:18:36.679Z,61.85
2022-12-18T01:21:09.179Z,61.46
2022-12-18T01:23:35.899Z,61.92
2022-12-18T01:26:13.759Z,61.02
2022-12-18T01:28:41.462Z,61.60
2022-12-18T01:31:29.967Z,61.87
2022-12-18T01:33:57.824Z,62.53
2022-12-18T01:36:31.407Z,61.66
2022-12-18T01:39:01.803Z,61.96
2022-12-18T01:41:51.464Z,62.36
2022-12-18T01:44:57.635Z,62.42
2022-12-18T01:47:32.735Z,62.24
2022-12-18T01:50:05.988Z,61.77
2022-12-18T01:52:34.668Z,62.15
2022-12-18T01:55:05.964Z,62.53
2022-12-18T01:57:33.310Z,61.54
2022-12-18T02:00:09.974Z,62.15
2022-12-18T02:02:36.460Z,61.68
2022-12-18T02:05:04.770Z,63.17
2022-12-18T02:07:59.298Z,61.97
2022-12-18T02:10:55.262Z,62.22
2022-12-18T02:13:36.136Z,62.80
2022-12-18T02:16:21.825Z,62.27
2022-12-18T02:18:58.799Z,63.22
2022-12-18T02:21:52.848Z,62.66
2022-12-18T02:24:35.573Z,62.09
2022-12-18T02:27:08.541Z,62.75
2022-12-18T02:29:58.744Z,62.18
2022-12-18T02:32:33.692Z,62.28
2022-12-18T02:35:03.636Z,62.45
2022-12-18T02:37:32.672Z,62.23
2022-12-18T02:40:01.048Z,61.91
2022-12-18T02:42:29.313Z,62.54
2022-12-18T02:44:55.856Z,62.96
2022-12-18T02:47:32.149Z,63.25
2022-12-18T02:49:58.606Z,63.41
2022-12-18T02:53:09.693Z,62.11
2022-12-18T02:56:16.472Z,62.80
2022-12-18T02:59:05.388Z,62.91
2022-12-18T03:02:23.098Z,62.89
2022-12-18T03:05:19.388Z,63.03
2022-12-18T03:08:03.261Z,63.56
2022-12-18T03:10:35.067Z,63.94
2022-12-18T03:13:09.540Z,63.40
2022-12-18T03:15:42.769Z,62.41
2022-12-18T03:18:17.368Z,62.64
2022-12-18T03:20:48.828Z,62.99
2022-12-18T03:23:25.972Z,63.36
2022-12-18T03:26:05.796Z,62.49
2022-12-18T03:28:43.172Z,62.94
2022-12-18T03:31:14.856Z,63.57
2022-12-18T03:33:58.652Z,64.00
2022-12-18T03:36:25.981Z,63.91
2022-12-18T03:38:52.692Z,63.07
2022-12-18T03:41:44.364Z,62.94
2022-12-18T03:44:41.308Z,63.78
2022-12-18T03:47:59.238Z,63.92
2022-12-18T03:50:39.977Z,63.69
2022-12-18T03:53:19.433Z,62.88
2022-12-18T03:55:48.837Z,64.19
2022-12-18T03:58:24.206Z,63.62
2022-12-18T04:00:54.635Z,63.92
2022-12-18T04:03:37.535Z,63.88
2022-12-18T04:06:05.965Z,63.73
2022-12-18T04:08:35.653Z,63.88
2022-12-18T04:11:03.795Z,63.27
2022-12-18T04:13:40.184Z,63.61
2022-12-18T04:16:07.578Z,63.93
2022-12-18T04:18:34.076Z,63.91
2022-12-18T04:21:00.536Z,63.67
2022-12-18T04:23:27.068Z,63.13
2022-12-18T04:25:53.569Z,63.33
2022-12-18T04:28:20.112Z,63.63
2022-12-18T04:30:49.797Z,62.68
2022-12-18T04:33:16.324Z,62.85
2022-12-18T04:35:43.424Z,63.72
2022-12-18T04:38:13.412Z,62.87
2022-12-18T04:40:40.162Z,63.71
2022-12-18T04:43:08.380Z,63.71
2022-12-18T04:45:34.967Z,64.08
2022-12-18T04:48:03.568Z,64.06
2022-12-18T04:50:31.201Z,64.00
2022-12-18T04:52:58.262Z,63.82
2022-12-18T04:55:25.789Z,63.19
2022-12-18T04:57:52.798Z,63.10
2022-12-18T05:00:19.807Z,63.76
2022-12-18T05:02:46.616Z,63.73
2022-12-18T05:05:13.451Z,63.54
2022-12-18T05:07:39.989Z,63.12
2022-12-18T05:10:06.975Z,62.76
2022-12-18T05:12:33.525Z,63.19
2022-12-18T05:15:00.100Z,62.97
2022-12-18T05:17:26.553Z,63.27
2022-12-18T05:19:53.041Z,63.51
2022-12-18T05:22:19.496Z,64.29
2022-12-18T05:24:45.961Z,63.62
2022-12-18T05:27:12.490Z,64.02
2022-12-18T05:29:38.942Z,64.03
2022-12-18T05:32:05.396Z,63.69
2022-12-18T05:34:32.044Z,63.61
2022-12-18T05:36:58.532Z,63.58
2022-12-18T05:39:24.961Z,63.24
2022-12-18T05:41:51.413Z,62.67
2022-12-18T05:44:17.909Z,63.36
2022-12-18T05:46:44.490Z,63.17
2022-12-18T05:49:11.015Z,63.65
2022-12-18T05:51:37.665Z,64.23
2022-12-18T05:54:04.177Z,64.60
2022-12-18T05:56:32.300Z,63.52
2022-12-18T05:58:58.894Z,64.65
2022-12-18T06:01:27.591Z,63.88
2022-12-18T06:03:56.069Z,64.09
2022-12-18T06:06:27.282Z,63.88
2022-12-18T06:08:55.608Z,63.33
2022-12-18T06:11:26.690Z,62.98
2022-12-18T06:13:59.079Z,63.25
2022-12-18T06:16:27.882Z,63.58
2022-12-18T06:18:57.621Z,64.27
2022-12-18T06:21:24.187Z,63.65
2022-12-18T06:23:50.728Z,63.58
2022-12-18T06:26:17.222Z,62.66
2022-12-18T06:28:43.761Z,63.26
2022-12-18T06:31:11.335Z,63.79
2022-12-18T06:33:39.873Z,64.81
2022-12-18T06:36:10.932Z,64.31
2022-12-18T06:38:41.505Z,63.85
2022-12-18T06:41:17.617Z,63.48
2022-12-18T06:43:45.131Z,63.38
2022-12-18T06:46:12.684Z,63.34
2022-12-18T06:48:39.444Z,63.59
2022-12-18T06:51:06.552Z,64.17
2022-12-18T06:53:34.239Z,64.05
2022-12-18T06:56:10.341Z,63.28
2022-12-18T06:58:37.593Z,65.36
2022-12-18T07:01:08.998Z,64.54
2022-12-18T07:03:35.684Z,64.79
2022-12-18T07:06:03.014Z,65.00
2022-12-18T07:08:31.651Z,64.09
2022-12-18T07:10:59.003Z,64.46
2022-12-18T07:13:25.768Z,64.42
2022-12-18T07:15:52.243Z,64.78
2022-12-18T07:18:18.745Z,65.09
2022-12-18T07:20:45.920Z,65.25
2022-12-18T07:23:14.234Z,64.94
2022-12-18T07:25:41.311Z,65.37
2022-12-18T07:28:10.589Z,65.35
2022-12-18T07:30:40.712Z,65.44
2022-12-18T07:33:08.597Z,65.41
2022-12-18T07:35:35.116Z,65.18
2022-12-18T07:38:01.620Z,65.99
2022-12-18T07:40:28.109Z,65.77
2022-12-18T07:42:54.620Z,65.57
2022-12-18T07:45:21.096Z,65.84
2022-12-18T07:47:47.623Z,65.81
2022-12-18T07:50:14.426Z,65.18
2022-12-18T07:52:40.922Z,65.36
2022-12-18T07:55:08.011Z,65.15
2022-12-18T07:57:50.213Z,65.40
2022-12-18T08:00:18.225Z,65.66
2022-12-18T08:02:44.855Z,64.99
2022-12-18T08:05:11.489Z,65.73
2022-12-18T08:07:38.045Z,65.55
2022-12-18T08:10:05.040Z,65.70
2022-12-18T08:12:33.072Z,65.90
2022-12-18T08:14:59.578Z,65.01
2022-12-18T08:17:27.087Z,65.31
2022-12-18T08:19:53.581Z,64.91
2022-12-18T08:22:20.192Z,64.74
2022-12-18T08:24:46.662Z,65.63
2022-12-18T08:27:28.892Z,65.81
2022-12-18T08:29:56.569Z,65.77
2022-12-18T08:32:23.184Z,65.64
2022-12-18T08:34:49.660Z,65.89
2022-12-18T08:37:16.191Z,65.82
2022-12-18T08:39:42.633Z,65.58
2022-12-18T08:42:27.675Z,65.79
2022-12-18T08:44:54.125Z,65.50
2022-12-18T08:47:20.604Z,65.30
2022-12-18T08:49:47.136Z,65.76
2022-12-18T08:52:13.588Z,65.93
2022-12-18T08:54:40.061Z,65.78
2022-12-18T08:57:06.596Z,64.88
2022-12-18T08:59:33.138Z,64.92
2022-12-18T09:01:59.723Z,65.17
2022-12-18T09:04:26.333Z,64.58
2022-12-18T09:06:52.821Z,64.25
2022-12-18T09:09:19.395Z,65.17
2022-12-18T09:11:46.169Z,64.61
2022-12-18T09:14:12.670Z,64.98
2022-12-18T09:16:39.288Z,64.84
2022-12-18T09:19:06.543Z,65.13
2022-12-18T09:21:37.174Z,65.28
2022-12-18T09:24:05.055Z,64.98
2022-12-18T09:26:35.184Z,66.09
2022-12-18T09:29:02.910Z,64.89
2022-12-18T09:31:29.399Z,65.20
2022-12-18T09:33:57.665Z,65.72
2022-12-18T09:36:24.623Z,65.10
2022-12-18T09:38:51.481Z,65.48
2022-12-18T09:41:54.312Z,66.17
2022-12-18T09:44:44.985Z,65.75
2022-12-18T09:47:29.192Z,65.04
2022-12-18T09:50:03.166Z,65.27
2022-12-18T09:52:45.986Z,65.59
2022-12-18T09:55:36.829Z,64.82
2022-12-18T09:58:11.180Z,64.26
2022-12-18T10:00:37.715Z,64.36
2022-12-18T10:03:11.980Z,64.59
2022-12-18T10:05:43.751Z,65.27
2022-12-18T10:08:26.430Z,64.58
2022-12-18T10:11:22.432Z,65.40
2022-12-18T10:13:57.999Z,65.86
2022-12-18T10:17:27.403Z,65.24
2022-12-18T10:20:15.490Z,65.16
2022-12-18T10:23:01.971Z,64.60
2022-12-18T10:25:50.218Z,64.63
2022-12-18T10:28:20.553Z,64.39
2022-12-18T10:30:47.628Z,64.42
2022-12-18T10:33:29.092Z,64.47
2022-12-18T10:35:56.509Z,64.30
2022-12-18T10:38:27.581Z,64.26
2022-12-18T10:41:02.534Z,63.79
2022-12-18T10:43:40.647Z,63.64
2022-12-18T10:46:10.256Z,63.86
2022-12-18T10:48:40.044Z,63.09
2022-12-18T10:51:12.288Z,63.10
2022-12-18T10:53:43.630Z,63.13
2022-12-18T10:56:10.596Z,62.89
2022-12-18T10:58:40.378Z,62.64
2022-12-18T11:01:21.026Z,62.97
2022-12-18T11:04:02.947Z,63.07
2022-12-18T11:06:30.706Z,63.42
2022-12-18T11:09:35.277Z,63.17
2022-12-18T11:12:18.024Z,62.32
2022-12-18T11:14:52.782Z,62.25
2022-12-18T11:17:31.417Z,62.18
2022-12-18T11:20:01.573Z,62.53
2022-12-18T11:22:32.295Z,62.21
2022-12-18T11:25:32.489Z,62.03
2022-12-18T11:28:25.986Z,62.54
2022-12-18T11:31:20.235Z,62.29
2022-12-18T11:34:30.583Z,62.60
2022-12-18T11:37:01.897Z,62.77
2022-12-18T11:39:42.888Z,62.04
2022-12-18T11:42:26.565Z,62.35
2022-12-18T11:45:07.501Z,61.77
2022-12-18T11:47:33.844Z,62.04
2022-12-18T11:50:11.600Z,61.39
2022-12-18T11:52:41.305Z,61.02
2022-12-18T11:55:37.866Z,60.54
2022-12-18T11:58:47.962Z,59.78
2022-12-18T12:01:58.119Z,60.04
2022-12-18T12:05:07.518Z,59.24
2022-12-18T12:07:56.262Z,59.82
2022-12-18T12:10:33.346Z,59.50
2022-12-18T12:13:02.624Z,59.37
2022-12-18T12:16:05.131Z,59.03
2022-12-18T12:19:23.200Z,58.84
2022-12-18T12:22:36.055Z,59.08
2022-12-18T12:25:22.237Z,59.40
2022-12-18T12:28:46.988Z,59.37
2022-12-18T12:31:45.287Z,59.76
2022-12-18T12:34:27.429Z,59.23
2022-12-18T12:37:48.244Z,59.07
2022-12-18T12:40:49.133Z,58.23
2022-12-18T12:43:25.823Z,58.86
2022-12-18T12:46:05.641Z,58.58
2022-12-18T12:48:53.944Z,58.61
2022-12-18T12:51:25.950Z,58.59
2022-12-18T12:53:55.596Z,58.22
2022-12-18T12:56:24.395Z,58.08
2022-12-18T12:59:30.115Z,56.46
2022-12-18T13:02:34.480Z,58.28
2022-12-18T13:05:31.020Z,58.15
2022-12-18T13:08:07.076Z,58.39
2022-12-18T13:10:42.913Z,57.35
2022-12-18T13:13:13.389Z,57.72
2022-12-18T13:16:06.519Z,57.44
2022-12-18T13:18:35.596Z,57.17
2022-12-18T13:21:05.352Z,57.53
2022-12-18T13:23:38.751Z,56.90
2022-12-18T13:26:11.425Z,56.79
2022-12-18T13:28:47.333Z,56.95
2022-12-18T13:31:41.841Z,56.21
2022-12-18T13:34:27.684Z,56.76
2022-12-18T13:37:16.700Z,56.72
2022-12-18T13:39:43.250Z,56.65
2022-12-18T13:42:30.631Z,56.45
2022-12-18T13:44:57.305Z,56.66
2022-12-18T13:47:38.302Z,56.73
2022-12-18T13:50:24.173Z,56.89
2022-12-18T13:52:53.060Z,57.39
2022-12-18T13:55:23.082Z,57.17
2022-12-18T13:57:49.562Z,57.01
2022-12-18T14:00:30.599Z,56.52
2022-12-18T14:03:01.088Z,56.71
2022-12-18T14:05:30.840Z,57.12
2022-12-18T14:08:05.478Z,56.66
2022-12-18T14:10:47.608Z,56.61
2022-12-18T14:13:30.190Z,56.84
2022-12-18T14:15:59.272Z,57.12
2022-12-18T14:18:45.058Z,56.27
2022-12-18T14:21:26.255Z,56.05
2022-12-18T14:24:06.751Z,56.73
2022-12-18T14:26:34.165Z,56.69
2022-12-18T14:29:23.260Z,56.89
2022-12-18T14:32:28.505Z,57.10
2022-12-18T14:34:56.155Z,56.89
2022-12-18T14:37:26.265Z,56.96
2022-12-18T14:40:10.953Z,56.64
2022-12-18T14:42:38.441Z,57.18
2022-12-18T14:45:44.440Z,56.15
2022-12-18T14:48:40.089Z,56.45
2022-12-18T14:51:20.064Z,56.94
2022-12-18T14:53:57.067Z,56.71
2022-12-18T14:56:34.531Z,56.99
2022-12-18T14:59:05.556Z,56.49
2022-12-18T15:01:45.270Z,56.62
2022-12-18T15:04:36.187Z,56.56
2022-12-18T15:07:18.197Z,56.49
2022-12-18T15:10:15.721Z,56.50
2022-12-18T15:12:49.163Z,56.58
2022-12-18T15:15:34.392Z,56.34
2022-12-18T15:18:04.018Z,56.33
2022-12-18T15:20:54.265Z,56.68
2022-12-18T15:23:25.182Z,56.53
2022-12-18T15:26:07.423Z,56.44
2022-12-18T15:28:46.848Z,56.61
2022-12-18T15:31:13.344Z,56.92
2022-12-18T15:33:51.274Z,57.22
2022-12-18T15:36:19.346Z,57.25
2022-12-18T15:38:56.149Z,57.06
2022-12-18T15:41:35.961Z,56.79
2022-12-18T15:44:04.136Z,56.85
2022-12-18T15:46:31.801Z,56.42
2022-12-18T15:49:02.281Z,56.23
2022-12-18T15:51:39.846Z,56.77
2022-12-18T15:54:12.625Z,56.85
2022-12-18T15:56:57.478Z,57.25
2022-12-18T15:59:25.180Z,56.77
2022-12-18T16:01:55.520Z,56.83
2022-12-18T16:04:24.456Z,56.73
2022-12-18T16:07:14.541Z,56.73
2022-12-18T16:09:39.656Z,56.83
2022-12-18T16:12:15.036Z,56.34
2022-12-18T16:14:41.601Z,57.09
2022-12-18T16:17:12.251Z,57.41
2022-12-18T16:19:39.016Z,57.17
2022-12-18T16:22:06.513Z,57.22
2022-12-18T16:24:35.041Z,57.15
2022-12-18T16:27:01.884Z,56.76
2022-12-18T16:29:29.856Z,56.98
2022-12-18T16:31:58.779Z,56.73
2022-12-18T16:34:30.959Z,57.44
2022-12-18T16:37:05.610Z,57.06
2022-12-18T16:39:35.208Z,57.67
2022-12-18T16:42:13.412Z,57.10
2022-12-18T16:44:39.947Z,58.23
2022-12-18T16:47:06.450Z,58.10
2022-12-18T16:49:35.396Z,57.35
2022-12-18T16:52:01.861Z,57.65
2022-12-18T16:54:30.393Z,57.73
2022-12-18T16:56:57.977Z,58.08
2022-12-18T16:59:26.439Z,57.88
2022-12-18T17:01:53.765Z,58.03
2022-12-18T17:04:20.338Z,58.16
2022-12-18T17:06:51.950Z,58.64
2022-12-18T17:09:30.492Z,58.54
2022-12-18T17:11:56.997Z,58.63
2022-12-18T17:14:25.100Z,58.65
2022-12-18T17:17:19.735Z,58.94
2022-12-18T17:19:40.569Z,57.88
2022-12-18T17:22:08.172Z,58.52
2022-12-18T17:24:35.603Z,58.64
2022-12-18T17:27:03.908Z,58.98
2022-12-18T17:29:30.851Z,59.25
2022-12-18T17:31:58.032Z,59.16
2022-12-18T17:34:26.833Z,58.55
2022-12-18T17:36:53.353Z,58.45
2022-12-18T17:39:21.305Z,58.59
2022-12-18T17:41:49.227Z,58.72
2022-12-18T17:44:16.976Z,59.24
2022-12-18T17:46:44.147Z,59.04
2022-12-18T17:49:11.741Z,58.95
2022-12-18T17:51:38.393Z,58.77
2022-12-18T17:54:05.332Z,59.12
2022-12-18T17:56:33.011Z,58.57
2022-12-18T17:59:00.349Z,58.13
2022-12-18T18:01:28.075Z,58.30
2022-12-18T18:03:57.744Z,58.54
2022-12-18T18:06:24.360Z,58.68
2022-12-18T18:08:51.951Z,58.71
2022-12-18T18:11:40.448Z,58.70
2022-12-18T18:14:18.291Z,59.21
2022-12-18T18:16:49.152Z,58.96
2022-12-18T18:19:22.464Z,59.36
2022-12-18T18:21:52.038Z,59.11
2022-12-18T18:24:26.149Z,59.75
2022-12-18T18:26:55.905Z,59.39
2022-12-18T18:29:26.861Z,59.52
2022-12-18T18:31:54.480Z,59.14
2022-12-18T18:34:24.631Z,59.30
2022-12-18T18:36:51.819Z,59.26
2022-12-18T18:39:18.609Z,59.84
2022-12-18T18:41:48.304Z,59.66
2022-12-18T18:44:16.945Z,59.29
2022-12-18T18:46:43.851Z,59.31
2022-12-18T18:49:10.736Z,59.27
2022-12-18T18:51:37.379Z,59.51
2022-12-18T18:54:04.055Z,59.59
2022-12-18T18:59:19.582Z,59.55
2022-12-18T19:01:52.472Z,59.10
2022-12-18T19:04:19.260Z,59.12
2022-12-18T19:06:47.725Z,59.45
2022-12-18T19:09:15.260Z,59.17
2022-12-18T19:12:00.165Z,59.37
2022-12-18T19:14:26.781Z,59.30
2022-12-18T19:16:54.085Z,59.07
2022-12-18T19:19:21.797Z,59.44
2022-12-18T19:21:48.436Z,59.17
2022-12-18T19:24:15.128Z,59.28
2022-12-18T19:26:41.613Z,59.01
2022-12-18T19:29:10.226Z,59.26
2022-12-18T19:31:37.557Z,59.31
2022-12-18T19:34:06.808Z,59.15
2022-12-18T19:36:36.248Z,59.57
2022-12-18T19:39:16.316Z,59.56
2022-12-18T19:41:44.073Z,59.87
2022-12-18T19:44:13.738Z,59.63
2022-12-18T19:46:42.345Z,59.47
2022-12-18T19:49:13.575Z,59.25
2022-12-18T19:51:44.303Z,59.64
2022-12-18T19:54:16.399Z,59.34
2022-12-18T19:56:43.837Z,59.43
2022-12-18T19:59:10.417Z,59.00
2022-12-18T20:01:37.340Z,58.68
2022-12-18T20:04:04.278Z,59.17
2022-12-18T20:06:52.160Z,58.96
2022-12-18T20:09:19.963Z,59.54
2022-12-18T20:11:47.804Z,59.94
2022-12-18T20:14:19.671Z,59.23
2022-12-18T20:16:52.106Z,59.51
2022-12-18T20:19:19.474Z,59.61
2022-12-18T20:21:46.339Z,59.51
2022-12-18T20:24:13.034Z,58.96
2022-12-18T20:26:40.466Z,59.50
2022-12-18T20:29:07.191Z,59.52
2022-12-18T20:31:33.713Z,59.55
2022-12-18T20:34:02.779Z,59.61
2022-12-18T20:36:32.898Z,59.03
2022-12-18T20:39:02.637Z,59.08
2022-12-18T20:41:37.233Z,59.15
2022-12-18T20:44:23.619Z,59.30
2022-12-18T20:47:07.440Z,58.89
2022-12-18T20:49:35.248Z,59.11
2022-12-18T20:52:03.031Z,59.44
2022-12-18T20:54:29.729Z,58.85
2022-12-18T20:56:57.267Z,59.31
2022-12-18T20:59:25.490Z,59.06
2022-12-18T21:01:53.079Z,59.21
2022-12-18T21:04:20.349Z,58.99
2022-12-18T21:06:55.708Z,59.30
2022-12-18T21:09:27.170Z,59.72
2022-12-18T21:12:14.107Z,59.81
2022-12-18T21:14:41.242Z,59.84
2022-12-18T21:17:07.821Z,59.53
2022-12-18T21:19:34.454Z,59.54
2022-12-18T21:22:01.087Z,59.49
2022-12-18T21:24:29.726Z,59.57
2022-12-18T21:27:01.828Z,59.51
2022-12-18T21:29:28.739Z,58.92
2022-12-18T21:31:55.512Z,59.21
2022-12-18T21:34:28.745Z,59.19
2022-12-18T21:36:58.341Z,59.58
2022-12-18T21:39:27.093Z,59.05
2022-12-18T21:42:12.675Z,59.19
2022-12-18T21:44:42.341Z,58.94
2022-12-18T21:47:21.951Z,59.47
2022-12-18T21:49:53.330Z,59.44
2022-12-18T21:52:30.916Z,59.48
2022-12-18T21:55:00.720Z,59.09
2022-12-18T21:57:31.196Z,59.67
2022-12-18T21:59:59.249Z,59.63
2022-12-18T22:02:26.584Z,58.95
2022-12-18T22:04:53.320Z,59.29
2022-12-18T22:07:20.506Z,59.29
2022-12-18T22:09:49.279Z,59.50
2022-12-18T22:12:34.982Z,59.55
2022-12-18T22:15:04.342Z,59.56
2022-12-18T22:17:30.987Z,59.37
2022-12-18T22:19:57.674Z,59.56
2022-12-18T22:22:24.376Z,59.55
2022-12-18T22:24:50.880Z,59.88
2022-12-18T22:27:17.388Z,59.55
2022-12-18T22:30:02.533Z,59.39
2022-12-18T22:32:31.340Z,59.88
2022-12-18T22:35:06.918Z,59.99
2022-12-18T22:37:34.808Z,59.94
2022-12-18T22:40:02.914Z,59.41
2022-12-18T22:42:31.256Z,59.08
2022-12-18T22:44:57.706Z,59.21
2022-12-18T22:47:29.240Z,58.74
2022-12-18T22:49:56.512Z,59.42
2022-12-18T22:52:24.713Z,59.49
2022-12-18T22:54:53.718Z,59.83
2022-12-18T22:57:22.152Z,59.67
2022-12-18T22:59:50.561Z,60.02
2022-12-18T23:02:18.659Z,59.64
2022-12-18T23:04:45.461Z,59.49
2022-12-18T23:07:11.997Z,60.00
2022-12-18T23:09:39.930Z,59.92
2022-12-18T23:12:07.363Z,60.30
2022-12-18T23:14:34.140Z,59.76
2022-12-18T23:17:00.574Z,59.86
2022-12-18T23:19:27.094Z,60.62
2022-12-18T23:21:54.865Z,61.42
2022-12-18T23:24:25.369Z,61.58
2022-12-18T23:26:52.014Z,61.17
2022-12-18T23:29:18.669Z,61.15
2022-12-18T23:31:45.354Z,61.12
2022-12-18T23:34:14.128Z,60.93
2022-12-18T23:36:46.560Z,61.26
2022-12-18T23:39:17.197Z,61.62
2022-12-18T23:41:56.585Z,61.17
2022-12-18T23:44:23.192Z,61.40
2022-12-18T23:46:49.737Z,61.20
2022-12-18T23:49:16.278Z,61.41
2022-12-18T23:51:42.868Z,60.93
2022-12-18T23:54:10.535Z,61.26
2022-12-18T23:56:37.015Z,60.95
2022-12-18T23:59:03.551Z,61.66
